sensor_id;sensor_type;location;lat;lon;timestamp;temperature;humidity
48686;DHT22;34485;51.536;3.816;2023-04-05T00:00:29;3.10;99.90
48686;DHT22;34485;51.536;3.816;2023-04-05T00:02:57;3.10;99.90
48686;DHT22;34485;51.536;3.816;2023-04-05T00:05:24;3.20;99.90
48686;DHT22;34485;51.536;3.816;2023-04-05T00:08:02;3.10;99.90
48686;DHT22;34485;51.536;3.816;2023-04-05T00:10:29;3.10;99.90
48686;DHT22;34485;51.536;3.816;2023-04-05T00:12:56;3.10;99.90
48686;DHT22;34485;51.536;3.816;2023-04-05T00:15:22;3.10;99.90
48686;DHT22;34485;51.536;3.816;2023-04-05T00:17:47;3.10;99.90
48686;DHT22;34485;51.536;3.816;2023-04-05T00:20:13;3.10;99.90
48686;DHT22;34485;51.536;3.816;2023-04-05T00:22:40;3.10;99.90
48686;DHT22;34485;51.536;3.816;2023-04-05T00:25:08;3.10;99.90
48686;DHT22;34485;51.536;3.816;2023-04-05T00:27:33;3.10;99.90
48686;DHT22;34485;51.536;3.816;2023-04-05T00:29:59;3.10;99.90
48686;DHT22;34485;51.536;3.816;2023-04-05T00:32:25;3.20;99.90
48686;DHT22;34485;51.536;3.816;2023-04-05T00:34:51;3.10;99.90
48686;DHT22;34485;51.536;3.816;2023-04-05T00:37:17;3.00;99.90
48686;DHT22;34485;51.536;3.816;2023-04-05T00:39:42;3.00;99.90
48686;DHT22;34485;51.536;3.816;2023-04-05T00:42:08;3.00;99.90
48686;DHT22;34485;51.536;3.816;2023-04-05T00:44:34;3.00;99.90
48686;DHT22;34485;51.536;3.816;2023-04-05T00:47:01;3.10;99.90
48686;DHT22;34485;51.536;3.816;2023-04-05T00:49:29;3.10;99.90
48686;DHT22;34485;51.536;3.816;2023-04-05T00:51:56;3.10;99.90
48686;DHT22;34485;51.536;3.816;2023-04-05T00:54:26;3.20;99.90
48686;DHT22;34485;51.536;3.816;2023-04-05T00:56:58;3.20;99.90
48686;DHT22;34485;51.536;3.816;2023-04-05T00:59:24;3.20;99.90
48686;DHT22;34485;51.536;3.816;2023-04-05T01:02:00;3.10;99.90
48686;DHT22;34485;51.536;3.816;2023-04-05T01:04:29;3.10;99.90
48686;DHT22;34485;51.536;3.816;2023-04-05T01:07:03;3.10;99.90
48686;DHT22;34485;51.536;3.816;2023-04-05T01:12:09;3.00;99.90
48686;DHT22;34485;51.536;3.816;2023-04-05T01:14:50;2.90;99.90
48686;DHT22;34485;51.536;3.816;2023-04-05T01:17:18;3.00;99.90
48686;DHT22;34485;51.536;3.816;2023-04-05T01:19:47;2.90;99.90
48686;DHT22;34485;51.536;3.816;2023-04-05T01:24:56;3.00;99.90
48686;DHT22;34485;51.536;3.816;2023-04-05T01:30:23;3.00;99.90
48686;DHT22;34485;51.536;3.816;2023-04-05T01:33:13;3.10;99.90
48686;DHT22;34485;51.536;3.816;2023-04-05T01:36:00;3.10;99.90
48686;DHT22;34485;51.536;3.816;2023-04-05T01:38:27;3.10;99.90
48686;DHT22;34485;51.536;3.816;2023-04-05T01:40:53;3.10;99.90
48686;DHT22;34485;51.536;3.816;2023-04-05T01:43:19;3.10;99.90
48686;DHT22;34485;51.536;3.816;2023-04-05T01:45:45;3.00;99.90
48686;DHT22;34485;51.536;3.816;2023-04-05T01:48:12;3.00;99.90
48686;DHT22;34485;51.536;3.816;2023-04-05T01:50:38;3.00;99.90
48686;DHT22;34485;51.536;3.816;2023-04-05T01:53:05;3.00;99.90
48686;DHT22;34485;51.536;3.816;2023-04-05T01:55:31;3.00;99.90
48686;DHT22;34485;51.536;3.816;2023-04-05T01:57:57;2.90;99.90
48686;DHT22;34485;51.536;3.816;2023-04-05T02:00:22;2.90;99.90
48686;DHT22;34485;51.536;3.816;2023-04-05T02:02:48;2.80;99.90
48686;DHT22;34485;51.536;3.816;2023-04-05T02:05:14;2.80;99.90
48686;DHT22;34485;51.536;3.816;2023-04-05T02:07:40;2.80;99.90
48686;DHT22;34485;51.536;3.816;2023-04-05T02:10:06;2.80;99.90
48686;DHT22;34485;51.536;3.816;2023-04-05T02:12:32;2.80;99.90
48686;DHT22;34485;51.536;3.816;2023-04-05T02:14:58;2.90;99.90
48686;DHT22;34485;51.536;3.816;2023-04-05T02:17:24;2.90;99.90
48686;DHT22;34485;51.536;3.816;2023-04-05T02:19:50;2.90;99.90
48686;DHT22;34485;51.536;3.816;2023-04-05T02:22:18;2.90;99.90
48686;DHT22;34485;51.536;3.816;2023-04-05T02:24:43;2.80;99.90
48686;DHT22;34485;51.536;3.816;2023-04-05T02:27:09;2.80;99.90
48686;DHT22;34485;51.536;3.816;2023-04-05T02:29:35;2.80;99.90
48686;DHT22;34485;51.536;3.816;2023-04-05T02:32:01;2.70;99.90
48686;DHT22;34485;51.536;3.816;2023-04-05T02:34:26;2.70;99.90
48686;DHT22;34485;51.536;3.816;2023-04-05T02:36:52;2.70;99.90
48686;DHT22;34485;51.536;3.816;2023-04-05T02:39:18;2.60;99.90
48686;DHT22;34485;51.536;3.816;2023-04-05T02:41:44;2.50;99.90
48686;DHT22;34485;51.536;3.816;2023-04-05T02:44:11;2.40;99.90
48686;DHT22;34485;51.536;3.816;2023-04-05T02:46:37;2.40;99.90
48686;DHT22;34485;51.536;3.816;2023-04-05T02:49:02;2.40;99.90
48686;DHT22;34485;51.536;3.816;2023-04-05T02:51:28;2.30;99.90
48686;DHT22;34485;51.536;3.816;2023-04-05T02:53:53;2.30;99.90
48686;DHT22;34485;51.536;3.816;2023-04-05T02:56:19;2.30;99.90
48686;DHT22;34485;51.536;3.816;2023-04-05T02:58:46;2.30;99.90
48686;DHT22;34485;51.536;3.816;2023-04-05T03:01:14;2.20;99.90
48686;DHT22;34485;51.536;3.816;2023-04-05T03:03:42;2.20;99.90
48686;DHT22;34485;51.536;3.816;2023-04-05T03:06:07;2.20;99.90
48686;DHT22;34485;51.536;3.816;2023-04-05T03:08:40;2.10;99.90
48686;DHT22;34485;51.536;3.816;2023-04-05T03:11:11;2.10;99.90
48686;DHT22;34485;51.536;3.816;2023-04-05T03:13:37;2.10;99.90
48686;DHT22;34485;51.536;3.816;2023-04-05T03:16:03;2.00;99.90
48686;DHT22;34485;51.536;3.816;2023-04-05T03:18:29;2.00;99.90
48686;DHT22;34485;51.536;3.816;2023-04-05T03:20:56;2.00;99.90
48686;DHT22;34485;51.536;3.816;2023-04-05T03:23:28;2.00;99.90
48686;DHT22;34485;51.536;3.816;2023-04-05T03:26:00;1.90;99.90
48686;DHT22;34485;51.536;3.816;2023-04-05T03:28:26;1.90;99.90
48686;DHT22;34485;51.536;3.816;2023-04-05T03:30:52;1.90;99.90
48686;DHT22;34485;51.536;3.816;2023-04-05T03:33:18;1.90;99.90
48686;DHT22;34485;51.536;3.816;2023-04-05T03:35:45;1.80;99.90
48686;DHT22;34485;51.536;3.816;2023-04-05T03:38:11;1.70;99.90
48686;DHT22;34485;51.536;3.816;2023-04-05T03:40:37;1.70;99.90
48686;DHT22;34485;51.536;3.816;2023-04-05T03:43:02;1.70;99.90
48686;DHT22;34485;51.536;3.816;2023-04-05T03:45:28;1.70;99.90
48686;DHT22;34485;51.536;3.816;2023-04-05T03:47:54;1.70;99.90
48686;DHT22;34485;51.536;3.816;2023-04-05T03:50:20;1.70;99.90
48686;DHT22;34485;51.536;3.816;2023-04-05T03:52:46;1.70;99.90
48686;DHT22;34485;51.536;3.816;2023-04-05T03:55:12;1.60;99.90
48686;DHT22;34485;51.536;3.816;2023-04-05T03:57:38;1.60;99.90
48686;DHT22;34485;51.536;3.816;2023-04-05T04:00:05;1.50;99.90
48686;DHT22;34485;51.536;3.816;2023-04-05T04:02:49;1.50;99.90
48686;DHT22;34485;51.536;3.816;2023-04-05T04:05:15;1.60;99.90
48686;DHT22;34485;51.536;3.816;2023-04-05T04:07:42;1.60;99.90
48686;DHT22;34485;51.536;3.816;2023-04-05T04:10:10;1.60;99.90
48686;DHT22;34485;51.536;3.816;2023-04-05T04:12:36;1.50;99.90
48686;DHT22;34485;51.536;3.816;2023-04-05T04:15:03;1.50;99.90
48686;DHT22;34485;51.536;3.816;2023-04-05T04:17:33;1.50;99.90
48686;DHT22;34485;51.536;3.816;2023-04-05T04:19:59;1.50;99.90
48686;DHT22;34485;51.536;3.816;2023-04-05T04:22:26;1.50;99.90
48686;DHT22;34485;51.536;3.816;2023-04-05T04:24:59;1.50;99.90
48686;DHT22;34485;51.536;3.816;2023-04-05T04:27:29;1.40;99.90
48686;DHT22;34485;51.536;3.816;2023-04-05T04:29:56;1.30;99.90
48686;DHT22;34485;51.536;3.816;2023-04-05T04:32:29;1.30;99.90
48686;DHT22;34485;51.536;3.816;2023-04-05T04:35:13;1.30;99.90
48686;DHT22;34485;51.536;3.816;2023-04-05T04:37:44;1.20;99.90
48686;DHT22;34485;51.536;3.816;2023-04-05T04:40:15;1.20;99.90
48686;DHT22;34485;51.536;3.816;2023-04-05T04:42:42;1.20;99.90
48686;DHT22;34485;51.536;3.816;2023-04-05T04:45:14;1.30;99.90
48686;DHT22;34485;51.536;3.816;2023-04-05T04:47:47;1.30;99.90
48686;DHT22;34485;51.536;3.816;2023-04-05T04:50:14;1.30;99.90
48686;DHT22;34485;51.536;3.816;2023-04-05T04:52:40;1.10;99.90
48686;DHT22;34485;51.536;3.816;2023-04-05T04:55:08;1.20;99.90
48686;DHT22;34485;51.536;3.816;2023-04-05T04:57:33;1.20;99.90
48686;DHT22;34485;51.536;3.816;2023-04-05T04:59:59;1.10;99.90
48686;DHT22;34485;51.536;3.816;2023-04-05T05:02:26;1.10;99.90
48686;DHT22;34485;51.536;3.816;2023-04-05T05:04:52;1.20;99.90
48686;DHT22;34485;51.536;3.816;2023-04-05T05:07:18;1.20;99.90
48686;DHT22;34485;51.536;3.816;2023-04-05T05:09:44;1.20;99.90
48686;DHT22;34485;51.536;3.816;2023-04-05T05:12:10;1.20;99.90
48686;DHT22;34485;51.536;3.816;2023-04-05T05:14:36;1.20;99.90
48686;DHT22;34485;51.536;3.816;2023-04-05T05:17:02;1.30;99.90
48686;DHT22;34485;51.536;3.816;2023-04-05T05:19:29;1.30;99.90
48686;DHT22;34485;51.536;3.816;2023-04-05T05:21:56;1.30;99.90
48686;DHT22;34485;51.536;3.816;2023-04-05T05:24:21;1.30;99.90
48686;DHT22;34485;51.536;3.816;2023-04-05T05:26:47;1.40;99.90
48686;DHT22;34485;51.536;3.816;2023-04-05T05:29:13;1.40;99.90
48686;DHT22;34485;51.536;3.816;2023-04-05T05:31:38;1.40;99.90
48686;DHT22;34485;51.536;3.816;2023-04-05T05:34:04;1.40;99.90
48686;DHT22;34485;51.536;3.816;2023-04-05T05:36:31;1.50;99.90
48686;DHT22;34485;51.536;3.816;2023-04-05T05:38:56;1.50;99.90
48686;DHT22;34485;51.536;3.816;2023-04-05T05:41:22;1.60;99.90
48686;DHT22;34485;51.536;3.816;2023-04-05T05:43:48;1.60;99.90
48686;DHT22;34485;51.536;3.816;2023-04-05T05:46:13;1.70;99.90
48686;DHT22;34485;51.536;3.816;2023-04-05T05:48:40;1.90;99.90
48686;DHT22;34485;51.536;3.816;2023-04-05T05:51:06;1.90;99.90
48686;DHT22;34485;51.536;3.816;2023-04-05T05:53:38;1.90;99.90
48686;DHT22;34485;51.536;3.816;2023-04-05T05:56:04;2.00;99.90
48686;DHT22;34485;51.536;3.816;2023-04-05T05:58:31;2.10;99.90
48686;DHT22;34485;51.536;3.816;2023-04-05T06:00:56;2.20;99.90
48686;DHT22;34485;51.536;3.816;2023-04-05T06:03:23;2.30;99.90
48686;DHT22;34485;51.536;3.816;2023-04-05T06:05:55;2.40;99.90
48686;DHT22;34485;51.536;3.816;2023-04-05T06:08:22;2.40;99.90
48686;DHT22;34485;51.536;3.816;2023-04-05T06:10:48;2.50;99.90
48686;DHT22;34485;51.536;3.816;2023-04-05T06:15:44;3.00;99.90
48686;DHT22;34485;51.536;3.816;2023-04-05T06:20:35;3.10;99.90
48686;DHT22;34485;51.536;3.816;2023-04-05T06:23:07;3.10;99.90
48686;DHT22;34485;51.536;3.816;2023-04-05T06:25:33;3.20;99.90
48686;DHT22;34485;51.536;3.816;2023-04-05T06:30:25;3.60;99.90
48686;DHT22;34485;51.536;3.816;2023-04-05T06:32:50;3.70;99.90
48686;DHT22;34485;51.536;3.816;2023-04-05T06:35:23;3.70;99.90
48686;DHT22;34485;51.536;3.816;2023-04-05T06:37:49;3.90;99.90
48686;DHT22;34485;51.536;3.816;2023-04-05T06:40:15;4.00;99.90
48686;DHT22;34485;51.536;3.816;2023-04-05T06:42:41;4.20;99.90
48686;DHT22;34485;51.536;3.816;2023-04-05T06:45:07;4.40;99.90
48686;DHT22;34485;51.536;3.816;2023-04-05T06:47:37;4.50;99.90
48686;DHT22;34485;51.536;3.816;2023-04-05T06:50:05;4.70;99.90
48686;DHT22;34485;51.536;3.816;2023-04-05T06:52:31;4.70;99.90
48686;DHT22;34485;51.536;3.816;2023-04-05T07:16:55;6.20;99.90
48686;DHT22;34485;51.536;3.816;2023-04-05T07:19:21;6.30;99.90
48686;DHT22;34485;51.536;3.816;2023-04-05T07:21:47;6.20;99.90
48686;DHT22;34485;51.536;3.816;2023-04-05T07:24:13;6.50;99.90
48686;DHT22;34485;51.536;3.816;2023-04-05T07:26:39;6.90;99.90
48686;DHT22;34485;51.536;3.816;2023-04-05T07:29:05;8.00;99.90
48686;DHT22;34485;51.536;3.816;2023-04-05T07:31:33;9.00;99.90
48686;DHT22;34485;51.536;3.816;2023-04-05T07:34:00;9.90;98.80
48686;DHT22;34485;51.536;3.816;2023-04-05T07:36:26;10.70;95.00
48686;DHT22;34485;51.536;3.816;2023-04-05T07:38:56;11.30;93.70
48686;DHT22;34485;51.536;3.816;2023-04-05T07:41:26;11.30;93.60
48686;DHT22;34485;51.536;3.816;2023-04-05T07:43:52;11.20;93.10
48686;DHT22;34485;51.536;3.816;2023-04-05T07:46:19;11.50;93.20
48686;DHT22;34485;51.536;3.816;2023-04-05T07:48:48;12.40;91.80
48686;DHT22;34485;51.536;3.816;2023-04-05T07:51:14;12.50;88.20
48686;DHT22;34485;51.536;3.816;2023-04-05T07:53:40;12.30;90.60
48686;DHT22;34485;51.536;3.816;2023-04-05T07:56:08;12.40;91.20
48686;DHT22;34485;51.536;3.816;2023-04-05T07:58:34;12.30;90.60
48686;DHT22;34485;51.536;3.816;2023-04-05T08:01:04;12.60;90.20
48686;DHT22;34485;51.536;3.816;2023-04-05T08:03:30;12.70;89.10
48686;DHT22;34485;51.536;3.816;2023-04-05T08:05:57;13.40;89.60
48686;DHT22;34485;51.536;3.816;2023-04-05T08:08:24;14.20;84.00
48686;DHT22;34485;51.536;3.816;2023-04-05T08:13:16;16.20;99.90
48686;DHT22;34485;51.536;3.816;2023-04-05T08:15:42;16.90;93.60
48686;DHT22;34485;51.536;3.816;2023-04-05T08:18:07;17.60;66.90
48686;DHT22;34485;51.536;3.816;2023-04-05T08:20:33;17.70;62.70
48686;DHT22;34485;51.536;3.816;2023-04-05T08:23:04;18.80;63.50
48686;DHT22;34485;51.536;3.816;2023-04-05T08:25:29;19.90;59.30
48686;DHT22;34485;51.536;3.816;2023-04-05T08:27:55;19.90;53.40
48686;DHT22;34485;51.536;3.816;2023-04-05T08:30:21;20.50;53.10
48686;DHT22;34485;51.536;3.816;2023-04-05T08:32:47;21.00;53.60
48686;DHT22;34485;51.536;3.816;2023-04-05T08:35:13;21.50;49.30
48686;DHT22;34485;51.536;3.816;2023-04-05T08:37:39;21.70;46.00
48686;DHT22;34485;51.536;3.816;2023-04-05T08:40:05;21.80;45.60
48686;DHT22;34485;51.536;3.816;2023-04-05T08:42:41;22.20;45.90
48686;DHT22;34485;51.536;3.816;2023-04-05T08:45:09;21.50;42.40
48686;DHT22;34485;51.536;3.816;2023-04-05T08:47:36;22.10;45.60
48686;DHT22;34485;51.536;3.816;2023-04-05T08:50:03;21.60;40.90
48686;DHT22;34485;51.536;3.816;2023-04-05T08:52:30;21.20;42.00
48686;DHT22;34485;51.536;3.816;2023-04-05T08:54:56;20.90;43.10
48686;DHT22;34485;51.536;3.816;2023-04-05T08:57:24;21.50;41.00
48686;DHT22;34485;51.536;3.816;2023-04-05T08:59:52;22.20;41.70
48686;DHT22;34485;51.536;3.816;2023-04-05T09:02:22;21.50;39.40
48686;DHT22;34485;51.536;3.816;2023-04-05T09:04:47;21.60;39.30
48686;DHT22;34485;51.536;3.816;2023-04-05T09:07:14;21.60;41.50
48686;DHT22;34485;51.536;3.816;2023-04-05T09:09:45;20.90;43.00
48686;DHT22;34485;51.536;3.816;2023-04-05T09:12:11;20.30;43.10
48686;DHT22;34485;51.536;3.816;2023-04-05T09:14:38;21.20;42.70
48686;DHT22;34485;51.536;3.816;2023-04-05T09:17:05;21.40;41.60
48686;DHT22;34485;51.536;3.816;2023-04-05T09:19:30;21.30;43.00
48686;DHT22;34485;51.536;3.816;2023-04-05T09:22:06;22.40;38.30
48686;DHT22;34485;51.536;3.816;2023-04-05T09:24:37;21.70;37.90
48686;DHT22;34485;51.536;3.816;2023-04-05T09:27:09;19.80;40.20
48686;DHT22;34485;51.536;3.816;2023-04-05T09:29:37;19.30;43.20
48686;DHT22;34485;51.536;3.816;2023-04-05T09:32:03;20.10;47.20
48686;DHT22;34485;51.536;3.816;2023-04-05T09:34:34;20.20;44.90
48686;DHT22;34485;51.536;3.816;2023-04-05T09:39:39;20.20;42.70
48686;DHT22;34485;51.536;3.816;2023-04-05T09:42:12;20.90;44.30
48686;DHT22;34485;51.536;3.816;2023-04-05T09:44:59;21.40;41.60
48686;DHT22;34485;51.536;3.816;2023-04-05T09:47:31;21.00;41.00
48686;DHT22;34485;51.536;3.816;2023-04-05T09:52:40;20.50;43.80
48686;DHT22;34485;51.536;3.816;2023-04-05T09:55:07;21.10;43.80
48686;DHT22;34485;51.536;3.816;2023-04-05T09:57:38;21.50;42.10
48686;DHT22;34485;51.536;3.816;2023-04-05T10:00:05;22.00;38.70
48686;DHT22;34485;51.536;3.816;2023-04-05T10:02:35;22.40;38.70
48686;DHT22;34485;51.536;3.816;2023-04-05T10:05:10;22.00;38.30
48686;DHT22;34485;51.536;3.816;2023-04-05T10:07:38;22.10;41.50
48686;DHT22;34485;51.536;3.816;2023-04-05T10:10:05;22.50;39.40
48686;DHT22;34485;51.536;3.816;2023-04-05T10:12:31;21.90;38.70
48686;DHT22;34485;51.536;3.816;2023-04-05T10:14:58;21.40;39.70
48686;DHT22;34485;51.536;3.816;2023-04-05T10:25:12;21.70;41.30
48686;DHT22;34485;51.536;3.816;2023-04-05T10:28:04;21.60;43.50
48686;DHT22;34485;51.536;3.816;2023-04-05T10:30:42;22.20;38.10
48686;DHT22;34485;51.536;3.816;2023-04-05T10:33:42;21.90;38.90
48686;DHT22;34485;51.536;3.816;2023-04-05T10:39:16;21.60;39.60
48686;DHT22;34485;51.536;3.816;2023-04-05T10:41:48;21.40;39.90
48686;DHT22;34485;51.536;3.816;2023-04-05T10:44:17;21.40;39.60
48686;DHT22;34485;51.536;3.816;2023-04-05T10:46:44;20.80;37.00
48686;DHT22;34485;51.536;3.816;2023-04-05T10:49:35;20.60;39.50
48686;DHT22;34485;51.536;3.816;2023-04-05T10:52:05;20.70;37.60
48686;DHT22;34485;51.536;3.816;2023-04-05T10:54:32;20.50;41.10
48686;DHT22;34485;51.536;3.816;2023-04-05T10:57:00;19.80;40.70
48686;DHT22;34485;51.536;3.816;2023-04-05T10:59:28;19.30;40.60
48686;DHT22;34485;51.536;3.816;2023-04-05T11:01:55;19.40;42.70
48686;DHT22;34485;51.536;3.816;2023-04-05T11:04:21;18.90;42.20
48686;DHT22;34485;51.536;3.816;2023-04-05T11:06:46;18.50;45.10
48686;DHT22;34485;51.536;3.816;2023-04-05T11:09:19;18.30;44.50
48686;DHT22;34485;51.536;3.816;2023-04-05T11:11:50;17.90;44.30
48686;DHT22;34485;51.536;3.816;2023-04-05T11:14:20;18.10;45.40
48686;DHT22;34485;51.536;3.816;2023-04-05T11:16:47;18.00;45.80
48686;DHT22;34485;51.536;3.816;2023-04-05T11:19:16;18.50;46.00
48686;DHT22;34485;51.536;3.816;2023-04-05T11:21:42;19.10;45.70
48686;DHT22;34485;51.536;3.816;2023-04-05T11:24:12;19.60;42.60
48686;DHT22;34485;51.536;3.816;2023-04-05T11:29:11;19.10;42.00
48686;DHT22;34485;51.536;3.816;2023-04-05T11:31:57;19.30;44.50
48686;DHT22;34485;51.536;3.816;2023-04-05T11:34:24;19.10;44.30
48686;DHT22;34485;51.536;3.816;2023-04-05T11:36:50;18.70;44.90
48686;DHT22;34485;51.536;3.816;2023-04-05T11:41:59;18.30;45.00
48686;DHT22;34485;51.536;3.816;2023-04-05T11:47:06;18.50;48.60
48686;DHT22;34485;51.536;3.816;2023-04-05T11:49:33;18.40;45.50
48686;DHT22;34485;51.536;3.816;2023-04-05T11:52:09;18.00;44.80
48686;DHT22;34485;51.536;3.816;2023-04-05T11:54:35;17.60;48.20
48686;DHT22;34485;51.536;3.816;2023-04-05T11:57:01;17.20;45.40
48686;DHT22;34485;51.536;3.816;2023-04-05T12:01:58;16.80;48.80
48686;DHT22;34485;51.536;3.816;2023-04-05T12:04:24;16.70;46.90
48686;DHT22;34485;51.536;3.816;2023-04-05T12:07:16;16.20;50.40
48686;DHT22;34485;51.536;3.816;2023-04-05T12:09:59;15.70;51.90
48686;DHT22;34485;51.536;3.816;2023-04-05T12:12:25;15.20;48.30
48686;DHT22;34485;51.536;3.816;2023-04-05T12:14:58;14.50;49.50
48686;DHT22;34485;51.536;3.816;2023-04-05T12:17:47;14.50;57.70
48686;DHT22;34485;51.536;3.816;2023-04-05T12:20:20;14.60;50.60
48686;DHT22;34485;51.536;3.816;2023-04-05T12:22:47;14.80;51.50
48686;DHT22;34485;51.536;3.816;2023-04-05T12:25:15;14.90;55.40
48686;DHT22;34485;51.536;3.816;2023-04-05T12:27:41;14.90;56.70
48686;DHT22;34485;51.536;3.816;2023-04-05T12:30:27;15.10;54.10
48686;DHT22;34485;51.536;3.816;2023-04-05T12:33:06;15.10;51.40
48686;DHT22;34485;51.536;3.816;2023-04-05T12:35:35;15.30;52.20
48686;DHT22;34485;51.536;3.816;2023-04-05T12:38:02;15.40;51.50
48686;DHT22;34485;51.536;3.816;2023-04-05T12:40:30;15.40;50.30
48686;DHT22;34485;51.536;3.816;2023-04-05T12:43:07;15.40;49.90
48686;DHT22;34485;51.536;3.816;2023-04-05T12:45:33;15.30;49.20
48686;DHT22;34485;51.536;3.816;2023-04-05T12:48:13;15.10;52.50
48686;DHT22;34485;51.536;3.816;2023-04-05T12:50:44;15.00;49.60
48686;DHT22;34485;51.536;3.816;2023-04-05T12:53:15;14.10;47.70
48686;DHT22;34485;51.536;3.816;2023-04-05T12:55:46;14.10;53.80
48686;DHT22;34485;51.536;3.816;2023-04-05T12:58:12;14.30;53.80
48686;DHT22;34485;51.536;3.816;2023-04-05T13:00:38;14.40;48.90
48686;DHT22;34485;51.536;3.816;2023-04-05T13:03:04;14.40;48.30
48686;DHT22;34485;51.536;3.816;2023-04-05T13:05:30;14.30;47.90
48686;DHT22;34485;51.536;3.816;2023-04-05T13:07:56;14.20;52.20
48686;DHT22;34485;51.536;3.816;2023-04-05T13:10:23;14.30;52.40
48686;DHT22;34485;51.536;3.816;2023-04-05T13:12:50;14.30;53.80
48686;DHT22;34485;51.536;3.816;2023-04-05T13:15:16;14.30;53.50
48686;DHT22;34485;51.536;3.816;2023-04-05T13:17:43;14.40;55.50
48686;DHT22;34485;51.536;3.816;2023-04-05T13:20:14;14.50;52.20
48686;DHT22;34485;51.536;3.816;2023-04-05T13:22:41;14.40;53.20
48686;DHT22;34485;51.536;3.816;2023-04-05T13:25:07;14.40;51.60
48686;DHT22;34485;51.536;3.816;2023-04-05T13:27:33;14.30;53.40
48686;DHT22;34485;51.536;3.816;2023-04-05T13:29:59;14.30;53.30
48686;DHT22;34485;51.536;3.816;2023-04-05T13:32:24;14.10;51.90
48686;DHT22;34485;51.536;3.816;2023-04-05T13:34:50;13.90;55.00
48686;DHT22;34485;51.536;3.816;2023-04-05T13:37:16;13.50;53.50
48686;DHT22;34485;51.536;3.816;2023-04-05T13:39:41;13.50;55.90
48686;DHT22;34485;51.536;3.816;2023-04-05T13:42:07;13.30;53.00
48686;DHT22;34485;51.536;3.816;2023-04-05T13:44:33;13.30;54.90
48686;DHT22;34485;51.536;3.816;2023-04-05T13:46:58;13.60;56.60
48686;DHT22;34485;51.536;3.816;2023-04-05T13:49:24;13.50;59.80
48686;DHT22;34485;51.536;3.816;2023-04-05T13:51:50;13.60;59.00
48686;DHT22;34485;51.536;3.816;2023-04-05T13:54:15;13.70;59.90
48686;DHT22;34485;51.536;3.816;2023-04-05T13:56:42;13.90;57.90
48686;DHT22;34485;51.536;3.816;2023-04-05T13:59:07;14.00;57.70
48686;DHT22;34485;51.536;3.816;2023-04-05T14:01:33;14.10;55.70
48686;DHT22;34485;51.536;3.816;2023-04-05T14:03:59;14.10;58.70
48686;DHT22;34485;51.536;3.816;2023-04-05T14:06:24;13.90;62.60
48686;DHT22;34485;51.536;3.816;2023-04-05T14:08:51;13.90;66.10
48686;DHT22;34485;51.536;3.816;2023-04-05T14:11:20;13.90;63.50
48686;DHT22;34485;51.536;3.816;2023-04-05T14:13:47;13.80;65.40
48686;DHT22;34485;51.536;3.816;2023-04-05T14:16:13;13.90;61.90
48686;DHT22;34485;51.536;3.816;2023-04-05T14:18:38;13.80;63.40
48686;DHT22;34485;51.536;3.816;2023-04-05T14:21:04;13.70;65.00
48686;DHT22;34485;51.536;3.816;2023-04-05T14:23:29;13.80;64.10
48686;DHT22;34485;51.536;3.816;2023-04-05T14:25:55;13.80;63.90
48686;DHT22;34485;51.536;3.816;2023-04-05T14:28:21;13.70;62.20
48686;DHT22;34485;51.536;3.816;2023-04-05T14:30:46;13.60;62.40
48686;DHT22;34485;51.536;3.816;2023-04-05T14:33:12;13.50;63.90
48686;DHT22;34485;51.536;3.816;2023-04-05T14:35:39;13.60;66.50
48686;DHT22;34485;51.536;3.816;2023-04-05T14:38:05;13.50;65.40
48686;DHT22;34485;51.536;3.816;2023-04-05T14:40:30;13.50;65.70
48686;DHT22;34485;51.536;3.816;2023-04-05T14:42:56;13.50;67.60
48686;DHT22;34485;51.536;3.816;2023-04-05T14:45:22;13.50;70.20
48686;DHT22;34485;51.536;3.816;2023-04-05T14:47:51;13.60;65.20
48686;DHT22;34485;51.536;3.816;2023-04-05T14:50:17;13.60;63.00
48686;DHT22;34485;51.536;3.816;2023-04-05T14:52:43;13.70;90.30
48686;DHT22;34485;51.536;3.816;2023-04-05T14:55:10;13.60;65.90
48686;DHT22;34485;51.536;3.816;2023-04-05T14:57:38;13.60;63.20
48686;DHT22;34485;51.536;3.816;2023-04-05T15:00:05;13.50;67.10
48686;DHT22;34485;51.536;3.816;2023-04-05T15:02:31;13.50;65.40
48686;DHT22;34485;51.536;3.816;2023-04-05T15:04:57;13.50;68.10
48686;DHT22;34485;51.536;3.816;2023-04-05T15:07:25;13.40;64.80
48686;DHT22;34485;51.536;3.816;2023-04-05T15:09:51;13.50;64.50
48686;DHT22;34485;51.536;3.816;2023-04-05T15:12:17;13.30;64.70
48686;DHT22;34485;51.536;3.816;2023-04-05T15:14:42;13.20;66.40
48686;DHT22;34485;51.536;3.816;2023-04-05T15:17:13;13.00;70.00
48686;DHT22;34485;51.536;3.816;2023-04-05T15:19:38;12.90;64.50
48686;DHT22;34485;51.536;3.816;2023-04-05T15:22:05;12.80;67.00
48686;DHT22;34485;51.536;3.816;2023-04-05T15:24:30;12.80;65.90
48686;DHT22;34485;51.536;3.816;2023-04-05T15:26:56;12.80;71.50
48686;DHT22;34485;51.536;3.816;2023-04-05T15:29:27;12.90;64.40
48686;DHT22;34485;51.536;3.816;2023-04-05T15:31:52;12.90;65.40
48686;DHT22;34485;51.536;3.816;2023-04-05T15:34:18;13.00;67.80
48686;DHT22;34485;51.536;3.816;2023-04-05T15:36:44;13.00;71.20
48686;DHT22;34485;51.536;3.816;2023-04-05T15:39:10;13.10;63.70
48686;DHT22;34485;51.536;3.816;2023-04-05T15:41:36;13.10;65.10
48686;DHT22;34485;51.536;3.816;2023-04-05T15:44:02;13.00;67.00
48686;DHT22;34485;51.536;3.816;2023-04-05T15:46:28;13.00;71.60
48686;DHT22;34485;51.536;3.816;2023-04-05T15:48:53;12.90;69.50
48686;DHT22;34485;51.536;3.816;2023-04-05T15:51:19;12.80;66.20
48686;DHT22;34485;51.536;3.816;2023-04-05T15:53:45;12.60;68.80
48686;DHT22;34485;51.536;3.816;2023-04-05T15:56:11;12.50;67.40
48686;DHT22;34485;51.536;3.816;2023-04-05T15:58:36;12.40;73.60
48686;DHT22;34485;51.536;3.816;2023-04-05T16:01:03;12.40;66.50
48686;DHT22;34485;51.536;3.816;2023-04-05T16:03:30;12.50;67.60
48686;DHT22;34485;51.536;3.816;2023-04-05T16:05:56;12.40;69.50
48686;DHT22;34485;51.536;3.816;2023-04-05T16:08:21;12.30;71.30
48686;DHT22;34485;51.536;3.816;2023-04-05T16:10:47;12.20;72.80
48686;DHT22;34485;51.536;3.816;2023-04-05T16:13:13;12.10;70.40
48686;DHT22;34485;51.536;3.816;2023-04-05T16:15:38;12.10;73.50
48686;DHT22;34485;51.536;3.816;2023-04-05T16:18:04;12.10;73.00
48686;DHT22;34485;51.536;3.816;2023-04-05T16:20:30;12.10;70.40
48686;DHT22;34485;51.536;3.816;2023-04-05T16:22:56;12.10;71.00
48686;DHT22;34485;51.536;3.816;2023-04-05T16:25:21;12.20;73.30
48686;DHT22;34485;51.536;3.816;2023-04-05T16:27:47;12.30;70.70
48686;DHT22;34485;51.536;3.816;2023-04-05T16:30:13;12.30;70.20
48686;DHT22;34485;51.536;3.816;2023-04-05T16:32:39;12.30;71.60
48686;DHT22;34485;51.536;3.816;2023-04-05T16:35:05;12.20;71.40
48686;DHT22;34485;51.536;3.816;2023-04-05T16:37:30;12.10;71.40
48686;DHT22;34485;51.536;3.816;2023-04-05T16:39:56;12.10;71.80
48686;DHT22;34485;51.536;3.816;2023-04-05T16:42:22;12.10;71.10
48686;DHT22;34485;51.536;3.816;2023-04-05T16:44:47;12.00;73.50
48686;DHT22;34485;51.536;3.816;2023-04-05T16:47:13;11.90;74.70